sensor_id;sensor_type;location;lat;lon;timestamp;pressure;altitude;pressure_sealevel;temperature;humidity
29121;BME280;16191;49.548;8.658;2023-03-22T00:01:28;100172.78;;;11.37;100.00
29121;BME280;16191;49.548;8.658;2023-03-22T00:03:56;100167.63;;;11.36;100.00
29121;BME280;16191;49.548;8.658;2023-03-22T00:06:24;100165.34;;;11.28;100.00
29121;BME280;16191;49.548;8.658;2023-03-22T00:08:51;100167.09;;;11.27;100.00
29121;BME280;16191;49.548;8.658;2023-03-22T00:11:20;100161.53;;;11.35;100.00
29121;BME280;16191;49.548;8.658;2023-03-22T00:13:48;100165.19;;;11.31;100.00
29121;BME280;16191;49.548;8.658;2023-03-22T00:16:18;100160.13;;;11.28;100.00
29121;BME280;16191;49.548;8.658;2023-03-22T00:18:44;100167.16;;;11.26;100.00
29121;BME280;16191;49.548;8.658;2023-03-22T00:21:13;100163.56;;;11.28;100.00
29121;BME280;16191;49.548;8.658;2023-03-22T00:23:40;100165.59;;;11.42;100.00
29121;BME280;16191;49.548;8.658;2023-03-22T00:26:08;100158.94;;;11.35;100.00
29121;BME280;16191;49.548;8.658;2023-03-22T00:28:37;100160.75;;;11.33;100.00
29121;BME280;16191;49.548;8.658;2023-03-22T00:31:04;100159.84;;;11.34;100.00
29121;BME280;16191;49.548;8.658;2023-03-22T00:33:31;100163.50;;;11.30;100.00
29121;BME280;16191;49.548;8.658;2023-03-22T00:36:01;100160.69;;;11.34;100.00
29121;BME280;16191;49.548;8.658;2023-03-22T00:38:28;100147.91;;;11.28;100.00
29121;BME280;16191;49.548;8.658;2023-03-22T00:41:17;100147.97;;;11.27;100.00
29121;BME280;16191;49.548;8.658;2023-03-22T00:43:45;100147.97;;;11.27;100.00
29121;BME280;16191;49.548;8.658;2023-03-22T00:46:13;100148.69;;;11.30;100.00
29121;BME280;16191;49.548;8.658;2023-03-22T00:48:40;100146.91;;;11.31;100.00
29121;BME280;16191;49.548;8.658;2023-03-22T00:51:08;100140.22;;;11.25;100.00
29121;BME280;16191;49.548;8.658;2023-03-22T00:53:37;100125.31;;;11.27;100.00
29121;BME280;16191;49.548;8.658;2023-03-22T00:56:09;100139.94;;;11.31;100.00
29121;BME280;16191;49.548;8.658;2023-03-22T00:58:43;100130.53;;;11.27;100.00
29121;BME280;16191;49.548;8.658;2023-03-22T01:01:09;100126.16;;;11.28;100.00
29121;BME280;16191;49.548;8.658;2023-03-22T01:03:41;100119.25;;;11.27;100.00
29121;BME280;16191;49.548;8.658;2023-03-22T01:06:09;100115.88;;;11.25;100.00
29121;BME280;16191;49.548;8.658;2023-03-22T01:08:36;100115.88;;;11.25;100.00
29121;BME280;16191;49.548;8.658;2023-03-22T01:11:06;100116.50;;;11.30;100.00
29121;BME280;16191;49.548;8.658;2023-03-22T01:13:34;100113.16;;;11.26;100.00
29121;BME280;16191;49.548;8.658;2023-03-22T01:16:04;100108.03;;;11.25;100.00
29121;BME280;16191;49.548;8.658;2023-03-22T01:18:32;100101.72;;;11.29;100.00
29121;BME280;16191;49.548;8.658;2023-03-22T01:20:59;100100.88;;;11.28;100.00
29121;BME280;16191;49.548;8.658;2023-03-22T01:23:26;100092.19;;;11.28;100.00
29121;BME280;16191;49.548;8.658;2023-03-22T01:25:53;100094.81;;;11.28;100.00
29121;BME280;16191;49.548;8.658;2023-03-22T01:28:19;100098.19;;;11.30;100.00
29121;BME280;16191;49.548;8.658;2023-03-22T01:30:46;100090.44;;;11.28;100.00
29121;BME280;16191;49.548;8.658;2023-03-22T01:33:13;100099.06;;;11.30;100.00
29121;BME280;16191;49.548;8.658;2023-03-22T01:35:40;100093.97;;;11.27;100.00
29121;BME280;16191;49.548;8.658;2023-03-22T01:38:08;100082.84;;;11.24;100.00
29121;BME280;16191;49.548;8.658;2023-03-22T01:40:41;100080.84;;;11.29;100.00
29121;BME280;16191;49.548;8.658;2023-03-22T01:43:13;100082.78;;;11.25;100.00
29121;BME280;16191;49.548;8.658;2023-03-22T01:45:47;100080.22;;;11.24;100.00
29121;BME280;16191;49.548;8.658;2023-03-22T01:48:19;100089.66;;;11.26;100.00
29121;BME280;16191;49.548;8.658;2023-03-22T01:50:57;100091.53;;;11.24;100.00
29121;BME280;16191;49.548;8.658;2023-03-22T01:53:36;100096.88;;;11.21;100.00
29121;BME280;16191;49.548;8.658;2023-03-22T01:56:06;100096.16;;;11.18;100.00
29121;BME280;16191;49.548;8.658;2023-03-22T01:58:36;100090.94;;;11.18;100.00
29121;BME280;16191;49.548;8.658;2023-03-22T02:01:07;100089.38;;;11.14;100.00
29121;BME280;16191;49.548;8.658;2023-03-22T02:03:50;100096.50;;;11.10;100.00
29121;BME280;16191;49.548;8.658;2023-03-22T02:06:19;100098.41;;;11.07;100.00
29121;BME280;16191;49.548;8.658;2023-03-22T02:08:52;100103.44;;;11.11;100.00
29121;BME280;16191;49.548;8.658;2023-03-22T02:11:29;100092.19;;;11.09;100.00
29121;BME280;16191;49.548;8.658;2023-03-22T02:26:40;100085.59;;;11.02;100.00
29121;BME280;16191;49.548;8.658;2023-03-22T02:42:09;100080.56;;;10.97;100.00
29121;BME280;16191;49.548;8.658;2023-03-22T02:45:07;100078.78;;;10.98;100.00
29121;BME280;16191;49.548;8.658;2023-03-22T02:48:04;100081.41;;;10.98;100.00
29121;BME280;16191;49.548;8.658;2023-03-22T02:50:45;100077.31;;;10.92;100.00
29121;BME280;16191;49.548;8.658;2023-03-22T02:53:41;100073.91;;;10.90;100.00
29121;BME280;16191;49.548;8.658;2023-03-22T02:56:30;100066.06;;;10.90;100.00
29121;BME280;16191;49.548;8.658;2023-03-22T02:59:02;100059.09;;;10.91;100.00
29121;BME280;16191;49.548;8.658;2023-03-22T03:04:28;100059.88;;;10.93;100.00
29121;BME280;16191;49.548;8.658;2023-03-22T03:06:58;100059.09;;;10.91;100.00
29121;BME280;16191;49.548;8.658;2023-03-22T03:09:27;100052.88;;;10.93;100.00
29121;BME280;16191;49.548;8.658;2023-03-22T03:11:54;100048.59;;;10.92;100.00
29121;BME280;16191;49.548;8.658;2023-03-22T03:14:25;100057.53;;;10.87;100.00
29121;BME280;16191;49.548;8.658;2023-03-22T03:19:37;100053.72;;;10.94;100.00
29121;BME280;16191;49.548;8.658;2023-03-22T03:27:57;100052.88;;;10.93;100.00
29121;BME280;16191;49.548;8.658;2023-03-22T03:30:30;100064.19;;;10.94;100.00
29121;BME280;16191;49.548;8.658;2023-03-22T03:33:06;100065.09;;;10.93;100.00
29121;BME280;16191;49.548;8.658;2023-03-22T03:35:54;100059.66;;;10.97;100.00
29121;BME280;16191;49.548;8.658;2023-03-22T03:38:27;100065.88;;;10.95;100.00
29121;BME280;16191;49.548;8.658;2023-03-22T03:41:13;100064.19;;;10.94;100.00
29121;BME280;16191;49.548;8.658;2023-03-22T03:43:42;100052.88;;;10.93;100.00
29121;BME280;16191;49.548;8.658;2023-03-22T03:46:11;100062.63;;;10.90;100.00
29121;BME280;16191;49.548;8.658;2023-03-22T03:48:40;100051.97;;;10.94;100.00
29121;BME280;16191;49.548;8.658;2023-03-22T03:51:09;100057.41;;;10.90;100.00
29121;BME280;16191;49.548;8.658;2023-03-22T03:53:36;100053.94;;;10.89;100.00
29121;BME280;16191;49.548;8.658;2023-03-22T03:56:02;100051.47;;;10.86;100.00
29121;BME280;16191;49.548;8.658;2023-03-22T03:58:35;100049.69;;;10.87;100.00
29121;BME280;16191;49.548;8.658;2023-03-22T04:01:02;100041.66;;;10.91;100.00
29121;BME280;16191;49.548;8.658;2023-03-22T04:03:49;100039.13;;;10.90;100.00
29121;BME280;16191;49.548;8.658;2023-03-22T04:06:42;100037.34;;;10.90;100.00
29121;BME280;16191;49.548;8.658;2023-03-22T04:09:14;100028.75;;;10.88;100.00
29121;BME280;16191;49.548;8.658;2023-03-22T04:11:46;100029.97;;;10.81;100.00
29121;BME280;16191;49.548;8.658;2023-03-22T04:14:13;100037.56;;;10.86;100.00
29121;BME280;16191;49.548;8.658;2023-03-22T04:16:40;100034.16;;;10.84;100.00
29121;BME280;16191;49.548;8.658;2023-03-22T04:19:11;100037.56;;;10.86;100.00
29121;BME280;16191;49.548;8.658;2023-03-22T04:21:38;100036.38;;;10.74;100.00
29121;BME280;16191;49.548;8.658;2023-03-22T04:24:06;100027.81;;;10.71;100.00
29121;BME280;16191;49.548;8.658;2023-03-22T04:26:36;100022.72;;;10.68;100.00
29121;BME280;16191;49.548;8.658;2023-03-22T04:29:18;100026.13;;;10.70;100.00
29121;BME280;16191;49.548;8.658;2023-03-22T04:31:49;100024.44;;;10.69;100.00
29121;BME280;16191;49.548;8.658;2023-03-22T04:34:20;100026.97;;;10.70;100.00
29121;BME280;16191;49.548;8.658;2023-03-22T04:36:56;100019.28;;;10.67;100.00
29121;BME280;16191;49.548;8.658;2023-03-22T04:39:29;100017.66;;;10.64;100.00
29121;BME280;16191;49.548;8.658;2023-03-22T04:42:09;100016.25;;;10.57;100.00
29121;BME280;16191;49.548;8.658;2023-03-22T04:44:36;100014.50;;;10.58;100.00
29121;BME280;16191;49.548;8.658;2023-03-22T04:47:03;100006.72;;;10.56;100.00
29121;BME280;16191;49.548;8.658;2023-03-22T04:49:31;100006.06;;;10.51;100.00
29121;BME280;16191;49.548;8.658;2023-03-22T04:51:57;100007.06;;;10.49;100.00
29121;BME280;16191;49.548;8.658;2023-03-22T04:54:33;100013.25;;;10.46;100.00
29121;BME280;16191;49.548;8.658;2023-03-22T04:57:00;100010.66;;;10.46;100.00
29121;BME280;16191;49.548;8.658;2023-03-22T04:59:31;100009.78;;;10.46;100.00
29121;BME280;16191;49.548;8.658;2023-03-22T05:01:58;100005.50;;;10.45;100.00
29121;BME280;16191;49.548;8.658;2023-03-22T05:04:29;100011.56;;;10.45;100.00
29121;BME280;16191;49.548;8.658;2023-03-22T05:07:03;100009.44;;;10.35;100.00
29121;BME280;16191;49.548;8.658;2023-03-22T05:09:40;100017.97;;;10.38;100.00
29121;BME280;16191;49.548;8.658;2023-03-22T05:12:07;100014.00;;;10.29;100.00
29121;BME280;16191;49.548;8.658;2023-03-22T05:14:46;100022.84;;;10.25;100.00
29121;BME280;16191;49.548;8.658;2023-03-22T05:17:18;100016.31;;;10.15;100.00
29121;BME280;16191;49.548;8.658;2023-03-22T05:19:46;100015.53;;;10.13;100.00
29121;BME280;16191;49.548;8.658;2023-03-22T05:22:13;100016.56;;;10.09;100.00
29121;BME280;16191;49.548;8.658;2023-03-22T05:24:46;100032.34;;;10.06;100.00
29121;BME280;16191;49.548;8.658;2023-03-22T05:27:21;100039.44;;;10.03;100.00
29121;BME280;16191;49.548;8.658;2023-03-22T05:30:09;100022.44;;;9.94;100.00
29121;BME280;16191;49.548;8.658;2023-03-22T05:32:45;100030.38;;;9.91;100.00
29121;BME280;16191;49.548;8.658;2023-03-22T05:35:12;100022.56;;;9.91;100.00
29121;BME280;16191;49.548;8.658;2023-03-22T05:37:44;100034.88;;;9.87;100.00
29121;BME280;16191;49.548;8.658;2023-03-22T05:40:12;100036.69;;;9.85;100.00
29121;BME280;16191;49.548;8.658;2023-03-22T05:42:42;100035.06;;;9.83;100.00
29121;BME280;16191;49.548;8.658;2023-03-22T05:45:15;100044.69;;;9.81;100.00
29121;BME280;16191;49.548;8.658;2023-03-22T05:47:46;100032.56;;;9.80;100.00
29121;BME280;16191;49.548;8.658;2023-03-22T05:50:20;100039.47;;;9.81;100.00
29121;BME280;16191;49.548;8.658;2023-03-22T05:52:49;100039.66;;;9.76;100.00
29121;BME280;16191;49.548;8.658;2023-03-22T05:55:39;100045.88;;;9.74;100.00
29121;BME280;16191;49.548;8.658;2023-03-22T05:58:06;100040.50;;;9.77;100.00
29121;BME280;16191;49.548;8.658;2023-03-22T06:00:37;100042.31;;;9.75;100.00
29121;BME280;16191;49.548;8.658;2023-03-22T06:03:19;100049.25;;;9.76;100.00
29121;BME280;16191;49.548;8.658;2023-03-22T06:05:53;100051.09;;;9.74;100.00
29121;BME280;16191;49.548;8.658;2023-03-22T06:08:32;100046.56;;;9.77;100.00
29121;BME280;16191;49.548;8.658;2023-03-22T06:10:59;100045.53;;;9.81;100.00
29121;BME280;16191;49.548;8.658;2023-03-22T06:13:26;100050.69;;;9.83;100.00
29121;BME280;16191;49.548;8.658;2023-03-22T06:15:53;100050.44;;;9.89;100.00
29121;BME280;16191;49.548;8.658;2023-03-22T06:18:23;100043.91;;;9.79;100.00
29121;BME280;16191;49.548;8.658;2023-03-22T06:20:58;100043.84;;;9.80;100.00
29121;BME280;16191;49.548;8.658;2023-03-22T06:23:24;100046.31;;;9.83;100.00
29121;BME280;16191;49.548;8.658;2023-03-22T06:25:52;100054.31;;;9.79;100.00
29121;BME280;16191;49.548;8.658;2023-03-22T06:28:18;100057.53;;;9.85;100.00
29121;BME280;16191;49.548;8.658;2023-03-22T06:30:50;100052.31;;;9.85;100.00
29121;BME280;16191;49.548;8.658;2023-03-22T06:33:29;100044.56;;;9.84;100.00
29121;BME280;16191;49.548;8.658;2023-03-22T06:36:18;100051.53;;;9.83;100.00
29121;BME280;16191;49.548;8.658;2023-03-22T06:39:00;100047.78;;;9.90;100.00
29121;BME280;16191;49.548;8.658;2023-03-22T06:41:30;100043.41;;;9.91;100.00
29121;BME280;16191;49.548;8.658;2023-03-22T06:43:56;100049.03;;;10.02;100.00
29121;BME280;16191;49.548;8.658;2023-03-22T06:46:43;100044.53;;;10.06;100.00
29121;BME280;16191;49.548;8.658;2023-03-22T06:49:23;100048.59;;;10.13;100.00
29121;BME280;16191;49.548;8.658;2023-03-22T06:51:53;100055.44;;;10.15;100.00
29121;BME280;16191;49.548;8.658;2023-03-22T06:54:20;100043.13;;;10.19;100.00
29121;BME280;16191;49.548;8.658;2023-03-22T06:56:46;100063.09;;;10.18;100.00
29121;BME280;16191;49.548;8.658;2023-03-22T06:59:13;100050.69;;;10.25;100.00
29121;BME280;16191;49.548;8.658;2023-03-22T07:01:40;100050.25;;;10.36;100.00
29121;BME280;16191;49.548;8.658;2023-03-22T07:04:09;100054.69;;;10.34;100.00
29121;BME280;16191;49.548;8.658;2023-03-22T07:06:36;100056.50;;;10.52;100.00
29121;BME280;16191;49.548;8.658;2023-03-22T07:09:03;100056.06;;;10.61;100.00
29121;BME280;16191;49.548;8.658;2023-03-22T07:11:33;100061.69;;;10.72;100.00
29121;BME280;16191;49.548;8.658;2023-03-22T07:14:01;100052.56;;;10.62;100.00
29121;BME280;16191;49.548;8.658;2023-03-22T07:16:45;100061.94;;;10.66;100.00
29121;BME280;16191;49.548;8.658;2023-03-22T07:19:12;100060.06;;;10.70;100.00
29121;BME280;16191;49.548;8.658;2023-03-22T07:21:39;100067.09;;;10.68;100.00
29121;BME280;16191;49.548;8.658;2023-03-22T07:24:08;100072.06;;;10.74;100.00
29121;BME280;16191;49.548;8.658;2023-03-22T07:26:37;100066.31;;;10.65;100.00
29121;BME280;16191;49.548;8.658;2023-03-22T07:29:05;100065.72;;;10.79;100.00
29121;BME280;16191;49.548;8.658;2023-03-22T07:31:32;100060.38;;;10.82;100.00
29121;BME280;16191;49.548;8.658;2023-03-22T07:34:05;100068.66;;;10.72;100.00
29121;BME280;16191;49.548;8.658;2023-03-22T07:36:40;100073.81;;;10.73;100.00
29121;BME280;16191;49.548;8.658;2023-03-22T07:39:09;100087.22;;;10.84;100.00
29121;BME280;16191;49.548;8.658;2023-03-22T07:41:41;100074.25;;;10.83;100.00
29121;BME280;16191;49.548;8.658;2023-03-22T07:44:23;100073.25;;;10.85;100.00
29121;BME280;16191;49.548;8.658;2023-03-22T07:47:10;100085.47;;;10.85;100.00
29121;BME280;16191;49.548;8.658;2023-03-22T07:50:09;100066.13;;;10.89;100.00
29121;BME280;16191;49.548;8.658;2023-03-22T07:52:43;100072.16;;;10.91;100.00
29121;BME280;16191;49.548;8.658;2023-03-22T07:55:12;100079.19;;;10.89;100.00
29121;BME280;16191;49.548;8.658;2023-03-22T07:57:39;100077.31;;;10.92;100.00
29121;BME280;16191;49.548;8.658;2023-03-22T08:00:07;100066.66;;;10.97;100.00
29121;BME280;16191;49.548;8.658;2023-03-22T08:03:12;100083.25;;;11.15;100.00
29121;BME280;16191;49.548;8.658;2023-03-22T08:05:54;100068.34;;;11.36;100.00
29121;BME280;16191;49.548;8.658;2023-03-22T08:08:24;100067.94;;;11.45;100.00
29121;BME280;16191;49.548;8.658;2023-03-22T08:10:51;100067.75;;;11.48;100.00
29121;BME280;16191;49.548;8.658;2023-03-22T08:13:18;100060.41;;;11.56;100.00
29121;BME280;16191;49.548;8.658;2023-03-22T08:15:45;100073.81;;;11.48;100.00
29121;BME280;16191;49.548;8.658;2023-03-22T08:18:11;100070.94;;;11.54;100.00
29121;BME280;16191;49.548;8.658;2023-03-22T08:20:39;100063.88;;;11.92;100.00
29121;BME280;16191;49.548;8.658;2023-03-22T08:23:13;100065.22;;;12.01;100.00
29121;BME280;16191;49.548;8.658;2023-03-22T08:25:42;100064.72;;;11.93;100.00
29121;BME280;16191;49.548;8.658;2023-03-22T08:28:09;100059.06;;;12.02;100.00
29121;BME280;16191;49.548;8.658;2023-03-22T08:30:37;100062.06;;;12.29;100.00
29121;BME280;16191;49.548;8.658;2023-03-22T08:33:05;100063.03;;;12.44;100.00
29121;BME280;16191;49.548;8.658;2023-03-22T08:35:32;100054.28;;;12.45;100.00
29121;BME280;16191;49.548;8.658;2023-03-22T08:37:59;100054.41;;;12.42;100.00
29121;BME280;16191;49.548;8.658;2023-03-22T08:40:35;100054.03;;;12.82;100.00
29121;BME280;16191;49.548;8.658;2023-03-22T08:43:06;100044.53;;;12.97;100.00
29121;BME280;16191;49.548;8.658;2023-03-22T08:45:41;100053.97;;;13.17;100.00
29121;BME280;16191;49.548;8.658;2023-03-22T08:48:13;100047.19;;;13.28;100.00
29121;BME280;16191;49.548;8.658;2023-03-22T08:50:59;100045.50;;;13.27;100.00
29121;BME280;16191;49.548;8.658;2023-03-22T08:53:37;100045.53;;;13.10;99.52
29121;BME280;16191;49.548;8.658;2023-03-22T08:56:35;100044.06;;;13.37;99.60
29121;BME280;16191;49.548;8.658;2023-03-22T08:59:41;100052.75;;;13.54;95.95
29121;BME280;16191;49.548;8.658;2023-03-22T09:02:26;100037.53;;;13.60;96.36
29121;BME280;16191;49.548;8.658;2023-03-22T09:04:54;100027.31;;;13.86;94.75
29121;BME280;16191;49.548;8.658;2023-03-22T09:07:21;100032.59;;;13.70;94.48
29121;BME280;16191;49.548;8.658;2023-03-22T09:09:56;100026.97;;;13.46;98.33
29121;BME280;16191;49.548;8.658;2023-03-22T09:12:24;100019.78;;;13.50;99.59
29121;BME280;16191;49.548;8.658;2023-03-22T09:14:51;100026.88;;;13.63;96.83
29121;BME280;16191;49.548;8.658;2023-03-22T09:17:18;100012.59;;;13.53;97.18
29121;BME280;16191;49.548;8.658;2023-03-22T09:19:47;100012.22;;;13.75;95.64
29121;BME280;16191;49.548;8.658;2023-03-22T09:22:14;100011.63;;;13.70;93.83
29121;BME280;16191;49.548;8.658;2023-03-22T09:24:45;100010.00;;;13.83;95.29
29121;BME280;16191;49.548;8.658;2023-03-22T09:27:12;100013.47;;;13.84;95.31
29121;BME280;16191;49.548;8.658;2023-03-22T09:29:38;100014.13;;;13.87;94.78
29121;BME280;16191;49.548;8.658;2023-03-22T09:32:10;100012.84;;;13.94;88.88
29121;BME280;16191;49.548;8.658;2023-03-22T09:34:38;100004.91;;;14.10;85.64
29121;BME280;16191;49.548;8.658;2023-03-22T09:37:05;100009.31;;;14.10;84.12
29121;BME280;16191;49.548;8.658;2023-03-22T09:39:41;100008.38;;;14.11;83.10
29121;BME280;16191;49.548;8.658;2023-03-22T09:42:34;99997.53;;;14.31;83.12
29121;BME280;16191;49.548;8.658;2023-03-22T09:45:07;99988.41;;;14.66;80.50
29121;BME280;16191;49.548;8.658;2023-03-22T09:47:47;99990.16;;;14.80;78.53
29121;BME280;16191;49.548;8.658;2023-03-22T09:50:22;99990.91;;;14.82;78.03
29121;BME280;16191;49.548;8.658;2023-03-22T09:52:49;99992.72;;;14.67;74.70
29121;BME280;16191;49.548;8.658;2023-03-22T09:55:20;99990.47;;;14.61;75.38
29121;BME280;16191;49.548;8.658;2023-03-22T10:00:37;99992.13;;;14.77;75.87
29121;BME280;16191;49.548;8.658;2023-03-22T10:03:19;99983.41;;;14.76;75.48
29121;BME280;16191;49.548;8.658;2023-03-22T10:06:01;99986.97;;;14.75;74.40
29121;BME280;16191;49.548;8.658;2023-03-22T10:08:57;99980.22;;;14.85;72.89
29121;BME280;16191;49.548;8.658;2023-03-22T10:11:40;99989.22;;;14.81;73.35
29121;BME280;16191;49.548;8.658;2023-03-22T10:14:28;99972.56;;;14.68;73.99
29121;BME280;16191;49.548;8.658;2023-03-22T10:16:58;99968.50;;;14.62;75.87
29121;BME280;16191;49.548;8.658;2023-03-22T10:19:35;99975.81;;;14.57;74.07
29121;BME280;16191;49.548;8.658;2023-03-22T10:22:09;99967.47;;;14.51;75.24
29121;BME280;16191;49.548;8.658;2023-03-22T10:24:38;99967.28;;;14.54;75.79
29121;BME280;16191;49.548;8.658;2023-03-22T10:27:19;99967.84;;;14.59;76.57
29121;BME280;16191;49.548;8.658;2023-03-22T10:30:04;99968.31;;;14.51;77.02
29121;BME280;16191;49.548;8.658;2023-03-22T10:35:22;99977.06;;;14.66;77.62
29121;BME280;16191;49.548;8.658;2023-03-22T10:37:50;99964.09;;;14.63;78.08
29121;BME280;16191;49.548;8.658;2023-03-22T10:40:32;99967.09;;;14.57;77.39
29121;BME280;16191;49.548;8.658;2023-03-22T10:43:03;99962.88;;;14.83;77.48
29121;BME280;16191;49.548;8.658;2023-03-22T10:45:32;99959.91;;;15.01;75.32
29121;BME280;16191;49.548;8.658;2023-03-22T10:48:34;99956.63;;;14.98;74.49
29121;BME280;16191;49.548;8.658;2023-03-22T10:51:02;99960.16;;;15.38;72.86
29121;BME280;16191;49.548;8.658;2023-03-22T10:53:42;99950.66;;;15.89;69.34
29121;BME280;16191;49.548;8.658;2023-03-22T10:56:15;99961.41;;;16.11;68.94
29121;BME280;16191;49.548;8.658;2023-03-22T10:58:44;99955.38;;;16.48;67.74
29121;BME280;16191;49.548;8.658;2023-03-22T11:01:33;99951.28;;;15.93;67.47
29121;BME280;16191;49.548;8.658;2023-03-22T11:06:30;99945.59;;;16.62;66.13
29121;BME280;16191;49.548;8.658;2023-03-22T11:09:15;99946.25;;;16.66;64.32
29121;BME280;16191;49.548;8.658;2023-03-22T11:11:51;99942.75;;;16.53;63.85
29121;BME280;16191;49.548;8.658;2023-03-22T11:14:29;99937.53;;;17.26;62.89
29121;BME280;16191;49.548;8.658;2023-03-22T11:17:00;99940.66;;;16.58;62.31
29121;BME280;16191;49.548;8.658;2023-03-22T11:19:35;99935.78;;;16.77;60.93
29121;BME280;16191;49.548;8.658;2023-03-22T11:22:18;99935.09;;;17.23;61.00
29121;BME280;16191;49.548;8.658;2023-03-22T11:24:49;99919.72;;;17.64;58.36
29121;BME280;16191;49.548;8.658;2023-03-22T11:27:26;99919.94;;;18.07;58.70
29121;BME280;16191;49.548;8.658;2023-03-22T11:29:58;99928.63;;;17.74;58.29
29121;BME280;16191;49.548;8.658;2023-03-22T11:32:28;99921.25;;;17.32;57.82
29121;BME280;16191;49.548;8.658;2023-03-22T11:35:11;99906.69;;;17.50;58.26
29121;BME280;16191;49.548;8.658;2023-03-22T11:37:45;99904.91;;;17.62;58.62
29121;BME280;16191;49.548;8.658;2023-03-22T11:40:33;99914.16;;;17.91;57.90
29121;BME280;16191;49.548;8.658;2023-03-22T11:45:39;99897.97;;;18.52;55.21
29121;BME280;16191;49.548;8.658;2023-03-22T11:48:11;99896.03;;;18.20;55.80
29121;BME280;16191;49.548;8.658;2023-03-22T11:50:40;99897.28;;;18.38;57.10
29121;BME280;16191;49.548;8.658;2023-03-22T11:53:12;99894.50;;;18.62;55.33
29121;BME280;16191;49.548;8.658;2023-03-22T11:55:41;99894.38;;;18.75;54.86
29121;BME280;16191;49.548;8.658;2023-03-22T11:58:25;99883.91;;;18.51;55.51
29121;BME280;16191;49.548;8.658;2023-03-22T12:00:58;99887.38;;;17.85;55.72
29121;BME280;16191;49.548;8.658;2023-03-22T12:03:32;99902.81;;;17.78;56.06
29121;BME280;16191;49.548;8.658;2023-03-22T12:06:10;99874.44;;;18.48;53.49
29121;BME280;16191;49.548;8.658;2023-03-22T12:08:50;99869.63;;;18.42;53.62
29121;BME280;16191;49.548;8.658;2023-03-22T12:11:30;99868.19;;;18.49;53.10
29121;BME280;16191;49.548;8.658;2023-03-22T12:14:06;99862.06;;;18.71;54.54
29121;BME280;16191;49.548;8.658;2023-03-22T12:16:55;99856.84;;;18.92;52.30
29121;BME280;16191;49.548;8.658;2023-03-22T12:19:35;99866.53;;;18.37;51.93
29121;BME280;16191;49.548;8.658;2023-03-22T12:22:09;99857.72;;;18.81;51.95
29121;BME280;16191;49.548;8.658;2023-03-22T12:24:36;99848.91;;;18.92;52.00
29121;BME280;16191;49.548;8.658;2023-03-22T12:27:14;99847.25;;;19.85;51.07
29121;BME280;16191;49.548;8.658;2023-03-22T12:29:46;99849.44;;;18.75;51.66
29121;BME280;16191;49.548;8.658;2023-03-22T12:32:20;99838.88;;;18.64;51.47
29121;BME280;16191;49.548;8.658;2023-03-22T12:34:50;99831.75;;;19.07;50.63
29121;BME280;16191;49.548;8.658;2023-03-22T12:37:30;99830.75;;;18.99;51.66
29121;BME280;16191;49.548;8.658;2023-03-22T12:40:16;99828.06;;;19.31;50.30
29121;BME280;16191;49.548;8.658;2023-03-22T12:42:51;99826.34;;;19.09;50.14
29121;BME280;16191;49.548;8.658;2023-03-22T12:45:27;99839.25;;;19.02;50.49
29121;BME280;16191;49.548;8.658;2023-03-22T12:48:04;99810.91;;;19.04;50.51
29121;BME280;16191;49.548;8.658;2023-03-22T12:50:41;99807.47;;;19.76;49.17
29121;BME280;16191;49.548;8.658;2023-03-22T12:53:15;99814.41;;;19.46;49.23
29121;BME280;16191;49.548;8.658;2023-03-22T12:55:44;99813.75;;;19.54;48.88
29121;BME280;16191;49.548;8.658;2023-03-22T12:58:14;99806.13;;;19.40;49.28
29121;BME280;16191;49.548;8.658;2023-03-22T13:00:55;99804.00;;;19.75;48.79
29121;BME280;16191;49.548;8.658;2023-03-22T13:03:35;99796.72;;;19.26;49.43
29121;BME280;16191;49.548;8.658;2023-03-22T13:06:05;99789.66;;;19.36;47.42
29121;BME280;16191;49.548;8.658;2023-03-22T13:09:03;99788.66;;;19.48;48.42
29121;BME280;16191;49.548;8.658;2023-03-22T13:11:38;99796.00;;;19.03;48.93
29121;BME280;16191;49.548;8.658;2023-03-22T13:14:04;99786.59;;;18.78;49.69
29121;BME280;16191;49.548;8.658;2023-03-22T13:17:01;99779.38;;;18.80;49.10
29121;BME280;16191;49.548;8.658;2023-03-22T13:19:34;99772.25;;;19.34;48.56
29121;BME280;16191;49.548;8.658;2023-03-22T13:22:25;99780.38;;;19.00;48.24
29121;BME280;16191;49.548;8.658;2023-03-22T13:27:35;99778.47;;;19.23;47.62
29121;BME280;16191;49.548;8.658;2023-03-22T13:35:53;99773.34;;;19.10;48.53
29121;BME280;16191;49.548;8.658;2023-03-22T13:38:29;99766.88;;;18.82;45.97
29121;BME280;16191;49.548;8.658;2023-03-22T13:41:23;99769.34;;;18.95;46.02
29121;BME280;16191;49.548;8.658;2023-03-22T13:43:54;99762.25;;;19.37;45.92
29121;BME280;16191;49.548;8.658;2023-03-22T13:51:25;99770.06;;;19.60;45.86
29121;BME280;16191;49.548;8.658;2023-03-22T13:59:27;99760.53;;;19.78;45.90
29121;BME280;16191;49.548;8.658;2023-03-22T14:02:17;99757.50;;;19.82;45.98
29121;BME280;16191;49.548;8.658;2023-03-22T14:04:49;99750.72;;;19.99;47.73
29121;BME280;16191;49.548;8.658;2023-03-22T14:09:49;99747.34;;;19.57;46.51
29121;BME280;16191;49.548;8.658;2023-03-22T14:12:23;99751.03;;;19.24;46.75
29121;BME280;16191;49.548;8.658;2023-03-22T14:15:00;99738.44;;;19.98;44.76
29121;BME280;16191;49.548;8.658;2023-03-22T14:17:41;99737.63;;;20.47;42.36
29121;BME280;16191;49.548;8.658;2023-03-22T14:20:16;99735.41;;;20.52;40.30
29121;BME280;16191;49.548;8.658;2023-03-22T14:22:57;99730.50;;;20.48;39.82
29121;BME280;16191;49.548;8.658;2023-03-22T14:25:26;99727.19;;;20.56;39.03
29121;BME280;16191;49.548;8.658;2023-03-22T14:27:53;99739.63;;;19.75;40.01
29121;BME280;16191;49.548;8.658;2023-03-22T14:33:05;99720.13;;;20.35;39.08